Kliftrans — PCDB — position and weather

sailwx.info

Track history (hours):
 
Tides and Currents Weather Stations Pressure Air Temp Water Temp Dewpoint Dewpoint Depression Visibility Wind Speed Wind Dir Waves Ship Positions

Kliftrans

Last reported at 2017-Jun-23 14:35 UTC. Time now 2017-Jun-23 17:31 UTC.
Position N 55°34' W 001°08'.

Length 32 m; draft 6.3 m.

Type: Tug. MMSI: 244890607.

Date/timePositionNaut miles runAvg speedWind from/ knotsBaromVisibWave heightAir tempDewpointWater temp
2017-Jun-23 14:35N 55°34' W 001°08'0 6.9
2017-Jun-23 14:31N 55°33' W 001°07'24 6.9
2017-Jun-23 11:05N 55°11' W 000°54'7 8.1
2017-Jun-23 10:14N 55°04' W 000°50'5 8.6
2017-Jun-23 09:42N 54°60' W 000°48'2 8.9
2017-Jun-23 09:25N 54°58' W 000°47'4 9.1
2017-Jun-23 08:58N 54°54' W 000°44'27 9.2
2017-Jun-23 05:58N 54°28' W 000°28'4 8.8
2017-Jun-23 05:31N 54°25' W 000°24'4 8.3
2017-Jun-23 05:01N 54°21' W 000°20'4 8.2
2017-Jun-23 04:30N 54°18' W 000°16'4 7.7
2017-Jun-23 04:01N 54°15' W 000°12'4 7.5
2017-Jun-23 03:30N 54°12' W 000°08'4 7.2
2017-Jun-23 03:01N 54°09' W 000°04'3 6.7
2017-Jun-23 02:30N 54°06' W 000°01'69 9.0
2017-Jun-22 18:46N 53°12' E 001°11'2 7.9
2017-Jun-22 18:30N 53°10' E 001°14'4 7.6
2017-Jun-22 18:00N 53°07' E 001°18'4 7.3
2017-Jun-22 17:31N 53°05' E 001°22'4 7.0
2017-Jun-22 17:01N 53°02' E 001°26'3 6.9
2017-Jun-22 16:31N 52°59' E 001°29'3 6.9
2017-Jun-22 16:00N 52°56' E 001°33'4 7.4
2017-Jun-22 15:31N 52°53' E 001°36'4 8.3
2017-Jun-22 15:00N 52°50' E 001°39'1010.0
2017-Jun-22 14:00N 52°41' E 001°48'3511.2
2017-Jun-22 10:52N 52°16' E 002°28'710.7
2017-Jun-22 10:15N 52°11' E 002°35'310.5
2017-Jun-22 09:58N 52°08' E 002°39'510.2
2017-Jun-22 09:30N 52°05' E 002°44'5 9.9
2017-Jun-22 09:00N 52°01' E 002°49'510.0
2017-Jun-22 08:30N 51°58' E 002°55'510.0
2017-Jun-22 08:00N 51°54' E 003°00'510.1
2017-Jun-22 07:31N 51°50' E 003°06'510.1
2017-Jun-22 06:58N 51°47' E 003°12'510.5
2017-Jun-22 06:30N 51°43' E 003°17'5 9.2
2017-Jun-22 05:57N 51°38' E 003°21'4 9.7
2017-Jun-22 05:29N 51°34' E 003°25'4 8.9
2017-Jun-22 05:00N 51°30' E 003°28'510.2
2017-Jun-22 04:29N 51°27' E 003°34'4 8.9
2017-Jun-22 04:00N 51°28' E 003°40'0 0.0
2017-Jun-22 03:12N 51°28' E 003°40'0 0.0
2017-Jun-22 02:51N 51°28' E 003°40'0 0.0
2017-Jun-22 02:30N 51°28' E 003°40'0 0.0
2017-Jun-22 01:51N 51°28' E 003°40'0 0.0
2017-Jun-22 01:27N 51°28' E 003°40'0 0.0
2017-Jun-21 23:51N 51°28' E 003°40'0 0.1
2017-Jun-21 23:27N 51°28' E 003°40'0 0.1
2017-Jun-21 22:57N 51°28' E 003°40'0 0.0
2017-Jun-21 22:21N 51°28' E 003°40'0 0.0
2017-Jun-21 21:51N 51°28' E 003°40'0 0.0
2017-Jun-21 20:33N 51°28' E 003°40'0 0.0
2017-Jun-21 20:15N 51°28' E 003°40'0 0.0
2017-Jun-21 19:57N 51°28' E 003°40'0 0.0
2017-Jun-21 18:51N 51°28' E 003°40'0 0.0
2017-Jun-21 18:21N 51°28' E 003°40'0 0.0
2017-Jun-21 16:27N 51°28' E 003°40'0 0.0
2017-Jun-21 14:57N 51°28' E 003°40'0 0.0
2017-Jun-21 12:51N 51°28' E 003°41'1 3.9
2017-Jun-21 12:29N 51°27' E 003°42'0 0.0
2017-Jun-21 11:59N 51°27' E 003°42'0 0.0
2017-Jun-21 10:29N 51°27' E 003°42'0 0.0
2017-Jun-21 09:05N 51°27' E 003°42'0 0.0
2017-Jun-21 08:05N 51°27' E 003°42'0 0.0
2017-Jun-21 07:59N 51°27' E 003°42'0 0.0
2017-Jun-21 07:23N 51°27' E 003°42'0 0.0
2017-Jun-21 06:59N 51°27' E 003°42'0 0.0
2017-Jun-21 06:29N 51°27' E 003°42'0 0.0
2017-Jun-21 05:53N 51°27' E 003°42'0 0.0
2017-Jun-21 05:30N 51°27' E 003°42'1 2.0
2017-Jun-21 05:00N 51°27' E 003°41'611.5
2017-Jun-21 04:29N 51°22' E 003°45'4 7.4
2017-Jun-21 04:00N 51°21' E 003°50'3 6.0
2017-Jun-21 03:30N 51°22' E 003°46'4 7.2
2017-Jun-21 03:00N 51°24' E 003°42'4 7.1
2017-Jun-21 02:25N 51°26' E 003°36'3 7.2
2017-Jun-21 02:00N 51°27' E 003°31'6 7.0
2017-Jun-21 01:12N 51°31' E 003°26'1 6.0
2017-Jun-21 01:00N 51°33' E 003°25'1120.9
2017-Jun-21 00:30N 51°42' E 003°17'0 0.0
2017-Jun-21 00:00N 51°42' E 003°17'0 0.0
2017-Jun-20 23:30N 51°42' E 003°17'1 1.6
2017-Jun-20 23:00N 51°43' E 003°16'3 5.6
2017-Jun-20 22:30N 51°45' E 003°14'2 4.9
2017-Jun-20 22:00N 51°47' E 003°11'2 4.6
2017-Jun-20 21:29N 51°49' E 003°09'2 4.6
2017-Jun-20 21:00N 51°50' E 003°06'2 4.7
2017-Jun-20 20:29N 51°52' E 003°04'20 6.8
2017-Jun-20 17:28N 52°07' E 002°41'3 7.3
2017-Jun-20 17:00N 52°09' E 002°37'4 7.4
2017-Jun-20 16:30N 52°12' E 002°33'4 7.5
2017-Jun-20 15:58N 52°15' E 002°29'8 8.2
2017-Jun-20 15:02N 52°22' E 002°22'1 8.2
2017-Jun-20 14:58N 52°22' E 002°22'5 8.0
2017-Jun-20 14:21N 52°26' E 002°16'29 6.4
2017-Jun-20 09:47N 52°49' E 001°48'2 6.0
2017-Jun-20 09:27N 52°51' E 001°45'3 6.0
2017-Jun-20 09:00N 52°53' E 001°42'3 6.3
2017-Jun-20 08:30N 52°55' E 001°38'3 6.7
2017-Jun-20 08:00N 52°57' E 001°34'4 7.0
2017-Jun-20 07:30N 52°60' E 001°30'4 7.5
2017-Jun-20 07:00N 53°03' E 001°26'4 7.8
2017-Jun-20 06:30N 53°06' E 001°23'4 8.0
2017-Jun-20 06:00N 53°09' E 001°20'5 8.3
2017-Jun-20 05:27N 53°13' E 001°16'69 8.5
2017-Jun-19 21:22N 54°07' E 000°02'3 8.3
2017-Jun-19 21:00N 54°09' W 000°01'4 7.8
2017-Jun-19 20:30N 54°12' W 000°05'4 7.3
2017-Jun-19 20:00N 54°15' W 000°09'3 7.0
2017-Jun-19 19:30N 54°18' W 000°12'3 6.9
2017-Jun-19 19:00N 54°21' W 000°16'3 6.6
2017-Jun-19 18:30N 54°23' W 000°19'3 6.2
2017-Jun-19 18:00N 54°26' W 000°23'3 5.8
2017-Jun-19 17:30N 54°28' W 000°26'3 5.9
2017-Jun-19 17:00N 54°30' W 000°29'35 6.6
2017-Jun-19 11:39N 54°55' W 001°13'1 7.3
2017-Jun-19 11:30N 54°56' W 001°14'4 7.4
2017-Jun-19 11:00N 54°58' W 001°19'4 7.2
2017-Jun-19 10:30N 55°01' W 001°23'3 5.6
2017-Jun-19 10:00N 54°59' W 001°27'2 3.9
2017-Jun-19 09:30N 54°59' W 001°31'0 0.0
2017-Jun-19 09:00N 54°59' W 001°31'0 0.0
2017-Jun-19 08:30N 54°59' W 001°31'0 0.0
2017-Jun-19 08:00N 54°59' W 001°31'0 0.1
2017-Jun-19 07:28N 54°59' W 001°31'0 0.0
2017-Jun-19 06:58N 54°59' W 001°31'0 0.0
2017-Jun-19 06:28N 54°59' W 001°31'0 0.0
2017-Jun-19 05:58N 54°59' W 001°31'0 0.0
2017-Jun-19 05:28N 54°59' W 001°31'0 0.0
2017-Jun-19 04:49N 54°59' W 001°31'0 0.0
2017-Jun-19 04:19N 54°59' W 001°31'0 0.0
2017-Jun-19 03:49N 54°59' W 001°31'0 0.0
2017-Jun-19 03:22N 54°59' W 001°31'0 0.0
2017-Jun-19 02:52N 54°59' W 001°31'0 0.0
2017-Jun-19 02:22N 54°59' W 001°31'0 0.0
2017-Jun-19 01:52N 54°59' W 001°31'0 0.0
2017-Jun-19 01:22N 54°59' W 001°31'0 0.0
2017-Jun-19 00:52N 54°59' W 001°31'0 0.0
2017-Jun-19 00:25N 54°59' W 001°31'0 0.0
2017-Jun-18 23:55N 54°59' W 001°31'0 0.0
2017-Jun-18 23:25N 54°59' W 001°31'0 0.0
2017-Jun-18 22:55N 54°59' W 001°31'0 0.0
2017-Jun-18 22:25N 54°59' W 001°31'0 0.0
2017-Jun-18 21:58N 54°59' W 001°31'0 0.0
2017-Jun-18 21:28N 54°59' W 001°31'0 0.0
2017-Jun-18 20:58N 54°59' W 001°31'0 0.0
2017-Jun-18 20:28N 54°59' W 001°31'0 0.0
2017-Jun-18 19:55N 54°59' W 001°31'0 0.0
2017-Jun-18 19:28N 54°59' W 001°31'0 0.0
2017-Jun-18 18:55N 54°59' W 001°31'0 0.0
2017-Jun-18 18:28N 54°59' W 001°31'0 0.0
2017-Jun-18 17:58N 54°59' W 001°31'0 0.0
2017-Jun-18 17:28N 54°59' W 001°31'0 0.0
2017-Jun-18 16:58N 54°59' W 001°31'0 0.0
2017-Jun-18 16:28N 54°59' W 001°31'0 0.0
2017-Jun-18 15:58N 54°59' W 001°31'0 0.0
2017-Jun-18 15:28N 54°59' W 001°31'0 0.0
2017-Jun-18 14:49N 54°59' W 001°31'0 0.0
2017-Jun-18 13:49N 54°59' W 001°31'0 0.0
2017-Jun-18 13:22N 54°59' W 001°31'0 0.0
2017-Jun-18 12:52N 54°59' W 001°31'0 0.0
2017-Jun-18 12:22N 54°59' W 001°31'0 0.0
2017-Jun-18 11:52N 54°59' W 001°31'0 0.0
2017-Jun-18 11:19N 54°59' W 001°31'0 0.0
2017-Jun-18 10:52N 54°59' W 001°31'0 0.0
2017-Jun-18 10:25N 54°59' W 001°31'0 0.0
2017-Jun-18 09:55N 54°59' W 001°31'0 0.0
2017-Jun-18 09:25N 54°59' W 001°31'0 0.0
2017-Jun-18 08:55N 54°59' W 001°31'0 0.0
2017-Jun-18 08:25N 54°59' W 001°31'0 0.0
2017-Jun-18 07:58N 54°59' W 001°31'0 0.0
2017-Jun-18 07:28N 54°59' W 001°31'0 0.0
2017-Jun-18 06:58N 54°59' W 001°31'0 0.0
2017-Jun-18 06:28N 54°59' W 001°31'0 0.0
2017-Jun-18 05:58N 54°59' W 001°31'0 0.0
2017-Jun-18 05:28N 54°59' W 001°31'0 0.0
2017-Jun-18 04:58N 54°59' W 001°31'0 0.0
2017-Jun-18 04:28N 54°59' W 001°31'0 0.0
2017-Jun-18 03:58N 54°59' W 001°31'0 0.0
2017-Jun-18 03:28N 54°59' W 001°31'0 0.0
2017-Jun-18 02:58N 54°59' W 001°31'0 0.0
2017-Jun-18 02:28N 54°59' W 001°31'0 0.0
2017-Jun-18 01:58N 54°59' W 001°31'0 0.0
2017-Jun-18 01:28N 54°59' W 001°31'0 0.0
2017-Jun-18 00:49N 54°59' W 001°31'0 0.0
2017-Jun-18 00:19N 54°59' W 001°31'0 0.0
2017-Jun-17 23:49N 54°59' W 001°31'0 0.0
2017-Jun-17 23:22N 54°59' W 001°31'0 0.0
2017-Jun-17 22:52N 54°59' W 001°31'0 0.0
2017-Jun-17 22:19N 54°59' W 001°31'0 0.0
2017-Jun-17 21:52N 54°59' W 001°31'0 0.0
2017-Jun-17 21:07N 54°59' W 001°31'0 0.0
2017-Jun-17 20:52N 54°59' W 001°31'0 0.0
2017-Jun-17 20:25N 54°59' W 001°31'0 0.0
2017-Jun-17 19:49N 54°59' W 001°31'0 0.0
2017-Jun-17 19:25N 54°59' W 001°31'0 0.0
2017-Jun-17 18:55N 54°59' W 001°31'0 0.0
2017-Jun-17 18:25N 54°59' W 001°31'0 0.0
2017-Jun-17 17:55N 54°59' W 001°31'0 0.0
2017-Jun-17 17:28N 54°59' W 001°31'0 0.0
2017-Jun-17 16:58N 54°59' W 001°31'0 0.0
2017-Jun-17 16:28N 54°59' W 001°31'0 0.0
2017-Jun-17 15:58N 54°59' W 001°31'0 0.0
2017-Jun-17 15:28N 54°59' W 001°31'0 0.0
2017-Jun-17 14:55N 54°59' W 001°31'0 0.0
2017-Jun-17 13:58N 54°59' W 001°31'0 0.0
2017-Jun-17 13:28N 54°59' W 001°31'0 0.0
2017-Jun-17 12:46N 54°59' W 001°31'0 0.0
2017-Jun-17 12:28N 54°59' W 001°31'0 0.0
2017-Jun-17 11:58N 54°59' W 001°31'0 0.0
2017-Jun-17 11:28N 54°59' W 001°31'0 0.0
2017-Jun-17 10:49N 54°59' W 001°31'0 0.0
2017-Jun-17 10:19N 54°59' W 001°31'0 0.0
2017-Jun-17 09:46N 54°59' W 001°31'0 0.0
2017-Jun-17 09:22N 54°59' W 001°31'0 0.0
2017-Jun-17 08:59N 54°59' W 001°31'0 0.0
2017-Jun-17 08:30N 54°59' W 001°31'0 0.0
2017-Jun-17 08:01N 54°59' W 001°31'1 1.6
2017-Jun-17 07:31N 54°59' W 001°29'3 5.5
2017-Jun-17 07:00N 55°01' W 001°25'5 9.2
2017-Jun-17 06:31N 55°01' W 001°17'510.6
2017-Jun-17 06:00N 54°60' W 001°08'30910.0
2017-Jun-15 23:08N 53°60' E 007°34'4 9.6
2017-Jun-15 22:46N 54°01' E 007°40'3 9.7
2017-Jun-15 22:27N 54°01' E 007°45'410.0
2017-Jun-15 22:00N 54°01' E 007°53'510.4
2017-Jun-15 21:30N 54°01' E 008°01'510.8
2017-Jun-15 21:00N 54°01' E 008°11'611.6
2017-Jun-15 20:30N 53°60' E 008°20'612.2
2017-Jun-15 20:00N 53°58' E 008°31'613.2
2017-Jun-15 19:30N 53°55' E 008°40'712.9
2017-Jun-15 19:00N 53°51' E 008°48'613.1
2017-Jun-15 18:30N 53°51' E 008°59'612.2
2017-Jun-15 18:00N 53°53' E 009°09'1 1.9
2017-Jun-15 17:30N 53°54' E 009°10'4 8.3
2017-Jun-15 17:00N 53°57' E 009°14'4 8.7
2017-Jun-15 16:30N 54°01' E 009°18'4 0.1
2017-Jun-14 09:02N 54°05' E 009°19'0 6.4
2017-Jun-14 08:58N 54°04' E 009°19'3 6.4
2017-Jun-14 08:30N 54°01' E 009°18'4 6.7
2017-Jun-14 07:57N 53°58' E 009°15'3 7.2
2017-Jun-14 07:31N 53°55' E 009°12'2 4.8
2017-Jun-14 07:00N 53°54' E 009°09'0 0.5
2017-Jun-14 06:30N 53°54' E 009°08'1 2.4
2017-Jun-14 06:00N 53°53' E 009°07'0 0.1
2017-Jun-14 05:30N 53°53' E 009°07'0 0.5
2017-Jun-14 05:00N 53°53' E 009°06'0 0.1
2017-Jun-14 04:31N 53°53' E 009°06'0 0.2
2017-Jun-14 04:00N 53°53' E 009°06'0 0.1
2017-Jun-14 03:31N 53°53' E 009°06'0 0.1
2017-Jun-14 03:00N 53°53' E 009°06'0 0.1
2017-Jun-14 02:30N 53°53' E 009°06'0 0.1
2017-Jun-14 02:00N 53°53' E 009°06'0 0.5
2017-Jun-14 01:31N 53°53' E 009°06'1 1.0
2017-Jun-14 00:59N 53°53' E 009°05'0 0.1
2017-Jun-14 00:31N 53°53' E 009°05'2 4.7
2017-Jun-14 00:00N 53°52' E 009°02'4 7.8
2017-Jun-13 23:31N 53°51' E 008°56'4 7.0
2017-Jun-13 23:00N 53°50' E 008°50'2 4.8
2017-Jun-13 22:30N 53°51' E 008°46'3 5.7
2017-Jun-13 22:00N 53°53' E 008°42'3 6.1
2017-Jun-13 21:29N 53°56' E 008°40'  
Track history (hours):
 
Tides and Currents Weather Stations Pressure Air Temp Water Temp Dewpoint Dewpoint Depression Visibility Wind Speed Wind Dir Waves Ship Positions

Kliftrans

Last reported at 2017-Jun-23 14:35 UTC. Time now 2017-Jun-23 17:31 UTC.
Position N 55°34' W 001°08'.

Length 32 m; draft 6.3 m.

Type: Tug. MMSI: 244890607.

Date/timePositionNaut miles runAvg speedWind from/ knotsBaromVisibWave heightAir tempDewpointWater temp
2017-Jun-23 14:35N 55°34' W 001°08'0 6.9
2017-Jun-23 14:31N 55°33' W 001°07'24 6.9
2017-Jun-23 11:05N 55°11' W 000°54'7 8.1
2017-Jun-23 10:14N 55°04' W 000°50'5 8.6
2017-Jun-23 09:42N 54°60' W 000°48'2 8.9
2017-Jun-23 09:25N 54°58' W 000°47'4 9.1
2017-Jun-23 08:58N 54°54' W 000°44'27 9.2
2017-Jun-23 05:58N 54°28' W 000°28'4 8.8
2017-Jun-23 05:31N 54°25' W 000°24'4 8.3
2017-Jun-23 05:01N 54°21' W 000°20'4 8.2
2017-Jun-23 04:30N 54°18' W 000°16'4 7.7
2017-Jun-23 04:01N 54°15' W 000°12'4 7.5
2017-Jun-23 03:30N 54°12' W 000°08'4 7.2
2017-Jun-23 03:01N 54°09' W 000°04'3 6.7
2017-Jun-23 02:30N 54°06' W 000°01'69 9.0
2017-Jun-22 18:46N 53°12' E 001°11'2 7.9
2017-Jun-22 18:30N 53°10' E 001°14'4 7.6
2017-Jun-22 18:00N 53°07' E 001°18'4 7.3
2017-Jun-22 17:31N 53°05' E 001°22'4 7.0
2017-Jun-22 17:01N 53°02' E 001°26'3 6.9
2017-Jun-22 16:31N 52°59' E 001°29'3 6.9
2017-Jun-22 16:00N 52°56' E 001°33'4 7.4
2017-Jun-22 15:31N 52°53' E 001°36'4 8.3
2017-Jun-22 15:00N 52°50' E 001°39'1010.0
2017-Jun-22 14:00N 52°41' E 001°48'3511.2
2017-Jun-22 10:52N 52°16' E 002°28'710.7
2017-Jun-22 10:15N 52°11' E 002°35'310.5
2017-Jun-22 09:58N 52°08' E 002°39'510.2
2017-Jun-22 09:30N 52°05' E 002°44'5 9.9
2017-Jun-22 09:00N 52°01' E 002°49'510.0
2017-Jun-22 08:30N 51°58' E 002°55'510.0
2017-Jun-22 08:00N 51°54' E 003°00'510.1
2017-Jun-22 07:31N 51°50' E 003°06'510.1
2017-Jun-22 06:58N 51°47' E 003°12'510.5
2017-Jun-22 06:30N 51°43' E 003°17'5 9.2
2017-Jun-22 05:57N 51°38' E 003°21'4 9.7
2017-Jun-22 05:29N 51°34' E 003°25'4 8.9
2017-Jun-22 05:00N 51°30' E 003°28'510.2
2017-Jun-22 04:29N 51°27' E 003°34'4 8.9
2017-Jun-22 04:00N 51°28' E 003°40'0 0.0
2017-Jun-22 03:12N 51°28' E 003°40'0 0.0
2017-Jun-22 02:51N 51°28' E 003°40'0 0.0
2017-Jun-22 02:30N 51°28' E 003°40'0 0.0
2017-Jun-22 01:51N 51°28' E 003°40'0 0.0
2017-Jun-22 01:27N 51°28' E 003°40'0 0.0
2017-Jun-21 23:51N 51°28' E 003°40'0 0.1
2017-Jun-21 23:27N 51°28' E 003°40'0 0.1
2017-Jun-21 22:57N 51°28' E 003°40'0 0.0
2017-Jun-21 22:21N 51°28' E 003°40'0 0.0
2017-Jun-21 21:51N 51°28' E 003°40'0 0.0
2017-Jun-21 20:33N 51°28' E 003°40'0 0.0
2017-Jun-21 20:15N 51°28' E 003°40'0 0.0
2017-Jun-21 19:57N 51°28' E 003°40'0 0.0
2017-Jun-21 18:51N 51°28' E 003°40'0 0.0
2017-Jun-21 18:21N 51°28' E 003°40'0 0.0
2017-Jun-21 16:27N 51°28' E 003°40'0 0.0
2017-Jun-21 14:57N 51°28' E 003°40'0 0.0
2017-Jun-21 12:51N 51°28' E 003°41'1 3.9
2017-Jun-21 12:29N 51°27' E 003°42'0 0.0
2017-Jun-21 11:59N 51°27' E 003°42'0 0.0
2017-Jun-21 10:29N 51°27' E 003°42'0 0.0
2017-Jun-21 09:05N 51°27' E 003°42'0 0.0
2017-Jun-21 08:05N 51°27' E 003°42'0 0.0
2017-Jun-21 07:59N 51°27' E 003°42'0 0.0
2017-Jun-21 07:23N 51°27' E 003°42'0 0.0
2017-Jun-21 06:59N 51°27' E 003°42'0 0.0
2017-Jun-21 06:29N 51°27' E 003°42'0 0.0
2017-Jun-21 05:53N 51°27' E 003°42'0 0.0
2017-Jun-21 05:30N 51°27' E 003°42'1 2.0
2017-Jun-21 05:00N 51°27' E 003°41'611.5
2017-Jun-21 04:29N 51°22' E 003°45'4 7.4
2017-Jun-21 04:00N 51°21' E 003°50'3 6.0
2017-Jun-21 03:30N 51°22' E 003°46'4 7.2
2017-Jun-21 03:00N 51°24' E 003°42'4 7.1
2017-Jun-21 02:25N 51°26' E 003°36'3 7.2
2017-Jun-21 02:00N 51°27' E 003°31'6 7.0
2017-Jun-21 01:12N 51°31' E 003°26'1 6.0
2017-Jun-21 01:00N 51°33' E 003°25'1120.9
2017-Jun-21 00:30N 51°42' E 003°17'0 0.0
2017-Jun-21 00:00N 51°42' E 003°17'0 0.0
2017-Jun-20 23:30N 51°42' E 003°17'1 1.6
2017-Jun-20 23:00N 51°43' E 003°16'3 5.6
2017-Jun-20 22:30N 51°45' E 003°14'2 4.9
2017-Jun-20 22:00N 51°47' E 003°11'2 4.6
2017-Jun-20 21:29N 51°49' E 003°09'2 4.6
2017-Jun-20 21:00N 51°50' E 003°06'2 4.7
2017-Jun-20 20:29N 51°52' E 003°04'20 6.8
2017-Jun-20 17:28N 52°07' E 002°41'3 7.3
2017-Jun-20 17:00N 52°09' E 002°37'4 7.4
2017-Jun-20 16:30N 52°12' E 002°33'4 7.5
2017-Jun-20 15:58N 52°15' E 002°29'8 8.2
2017-Jun-20 15:02N 52°22' E 002°22'1 8.2
2017-Jun-20 14:58N 52°22' E 002°22'5 8.0
2017-Jun-20 14:21N 52°26' E 002°16'29 6.4
2017-Jun-20 09:47N 52°49' E 001°48'2 6.0
2017-Jun-20 09:27N 52°51' E 001°45'3 6.0
2017-Jun-20 09:00N 52°53' E 001°42'3 6.3
2017-Jun-20 08:30N 52°55' E 001°38'3 6.7
2017-Jun-20 08:00N 52°57' E 001°34'4 7.0
2017-Jun-20 07:30N 52°60' E 001°30'4 7.5
2017-Jun-20 07:00N 53°03' E 001°26'4 7.8
2017-Jun-20 06:30N 53°06' E 001°23'4 8.0
2017-Jun-20 06:00N 53°09' E 001°20'5 8.3
2017-Jun-20 05:27N 53°13' E 001°16'69 8.5
2017-Jun-19 21:22N 54°07' E 000°02'3 8.3
2017-Jun-19 21:00N 54°09' W 000°01'4 7.8
2017-Jun-19 20:30N 54°12' W 000°05'4 7.3
2017-Jun-19 20:00N 54°15' W 000°09'3 7.0
2017-Jun-19 19:30N 54°18' W 000°12'3 6.9
2017-Jun-19 19:00N 54°21' W 000°16'3 6.6
2017-Jun-19 18:30N 54°23' W 000°19'3 6.2
2017-Jun-19 18:00N 54°26' W 000°23'3 5.8
2017-Jun-19 17:30N 54°28' W 000°26'3 5.9
2017-Jun-19 17:00N 54°30' W 000°29'35 6.6
2017-Jun-19 11:39N 54°55' W 001°13'1 7.3
2017-Jun-19 11:30N 54°56' W 001°14'4 7.4
2017-Jun-19 11:00N 54°58' W 001°19'4 7.2
2017-Jun-19 10:30N 55°01' W 001°23'3 5.6
2017-Jun-19 10:00N 54°59' W 001°27'2 3.9
2017-Jun-19 09:30N 54°59' W 001°31'0 0.0
2017-Jun-19 09:00N 54°59' W 001°31'0 0.0
2017-Jun-19 08:30N 54°59' W 001°31'0 0.0
2017-Jun-19 08:00N 54°59' W 001°31'0 0.1
2017-Jun-19 07:28N 54°59' W 001°31'0 0.0
2017-Jun-19 06:58N 54°59' W 001°31'0 0.0
2017-Jun-19 06:28N 54°59' W 001°31'0 0.0
2017-Jun-19 05:58N 54°59' W 001°31'0 0.0
2017-Jun-19 05:28N 54°59' W 001°31'0 0.0
2017-Jun-19 04:49N 54°59' W 001°31'0 0.0
2017-Jun-19 04:19N 54°59' W 001°31'0 0.0
2017-Jun-19 03:49N 54°59' W 001°31'0 0.0
2017-Jun-19 03:22N 54°59' W 001°31'0 0.0
2017-Jun-19 02:52N 54°59' W 001°31'0 0.0
2017-Jun-19 02:22N 54°59' W 001°31'0 0.0
2017-Jun-19 01:52N 54°59' W 001°31'0 0.0
2017-Jun-19 01:22N 54°59' W 001°31'0 0.0
2017-Jun-19 00:52N 54°59' W 001°31'0 0.0
2017-Jun-19 00:25N 54°59' W 001°31'0 0.0
2017-Jun-18 23:55N 54°59' W 001°31'0 0.0
2017-Jun-18 23:25N 54°59' W 001°31'0 0.0
2017-Jun-18 22:55N 54°59' W 001°31'0 0.0
2017-Jun-18 22:25N 54°59' W 001°31'0 0.0
2017-Jun-18 21:58N 54°59' W 001°31'0 0.0
2017-Jun-18 21:28N 54°59' W 001°31'0 0.0
2017-Jun-18 20:58N 54°59' W 001°31'0 0.0
2017-Jun-18 20:28N 54°59' W 001°31'0 0.0
2017-Jun-18 19:55N 54°59' W 001°31'0 0.0
2017-Jun-18 19:28N 54°59' W 001°31'0 0.0
2017-Jun-18 18:55N 54°59' W 001°31'0 0.0
2017-Jun-18 18:28N 54°59' W 001°31'0 0.0
2017-Jun-18 17:58N 54°59' W 001°31'0 0.0
2017-Jun-18 17:28N 54°59' W 001°31'0 0.0
2017-Jun-18 16:58N 54°59' W 001°31'0 0.0
2017-Jun-18 16:28N 54°59' W 001°31'0 0.0
2017-Jun-18 15:58N 54°59' W 001°31'0 0.0
2017-Jun-18 15:28N 54°59' W 001°31'0 0.0
2017-Jun-18 14:49N 54°59' W 001°31'0 0.0
2017-Jun-18 13:49N 54°59' W 001°31'0 0.0
2017-Jun-18 13:22N 54°59' W 001°31'0 0.0
2017-Jun-18 12:52N 54°59' W 001°31'0 0.0
2017-Jun-18 12:22N 54°59' W 001°31'0 0.0
2017-Jun-18 11:52N 54°59' W 001°31'0 0.0
2017-Jun-18 11:19N 54°59' W 001°31'0 0.0
2017-Jun-18 10:52N 54°59' W 001°31'0 0.0
2017-Jun-18 10:25N 54°59' W 001°31'0 0.0
2017-Jun-18 09:55N 54°59' W 001°31'0 0.0
2017-Jun-18 09:25N 54°59' W 001°31'0 0.0
2017-Jun-18 08:55N 54°59' W 001°31'0 0.0
2017-Jun-18 08:25N 54°59' W 001°31'0 0.0
2017-Jun-18 07:58N 54°59' W 001°31'0 0.0
2017-Jun-18 07:28N 54°59' W 001°31'0 0.0
2017-Jun-18 06:58N 54°59' W 001°31'0 0.0
2017-Jun-18 06:28N 54°59' W 001°31'0 0.0
2017-Jun-18 05:58N 54°59' W 001°31'0 0.0
2017-Jun-18 05:28N 54°59' W 001°31'0 0.0
2017-Jun-18 04:58N 54°59' W 001°31'0 0.0
2017-Jun-18 04:28N 54°59' W 001°31'0 0.0
2017-Jun-18 03:58N 54°59' W 001°31'0 0.0
2017-Jun-18 03:28N 54°59' W 001°31'0 0.0
2017-Jun-18 02:58N 54°59' W 001°31'0 0.0
2017-Jun-18 02:28N 54°59' W 001°31'0 0.0
2017-Jun-18 01:58N 54°59' W 001°31'0 0.0
2017-Jun-18 01:28N 54°59' W 001°31'0 0.0
2017-Jun-18 00:49N 54°59' W 001°31'0 0.0
2017-Jun-18 00:19N 54°59' W 001°31'0 0.0
2017-Jun-17 23:49N 54°59' W 001°31'0 0.0
2017-Jun-17 23:22N 54°59' W 001°31'0 0.0
2017-Jun-17 22:52N 54°59' W 001°31'0 0.0
2017-Jun-17 22:19N 54°59' W 001°31'0 0.0
2017-Jun-17 21:52N 54°59' W 001°31'0 0.0
2017-Jun-17 21:07N 54°59' W 001°31'0 0.0
2017-Jun-17 20:52N 54°59' W 001°31'0 0.0
2017-Jun-17 20:25N 54°59' W 001°31'0 0.0
2017-Jun-17 19:49N 54°59' W 001°31'0 0.0
2017-Jun-17 19:25N 54°59' W 001°31'0 0.0
2017-Jun-17 18:55N 54°59' W 001°31'0 0.0
2017-Jun-17 18:25N 54°59' W 001°31'0 0.0
2017-Jun-17 17:55N 54°59' W 001°31'0 0.0
2017-Jun-17 17:28N 54°59' W 001°31'0 0.0
2017-Jun-17 16:58N 54°59' W 001°31'0 0.0
2017-Jun-17 16:28N 54°59' W 001°31'0 0.0
2017-Jun-17 15:58N 54°59' W 001°31'0 0.0
2017-Jun-17 15:28N 54°59' W 001°31'0 0.0
2017-Jun-17 14:55N 54°59' W 001°31'0 0.0
2017-Jun-17 13:58N 54°59' W 001°31'0 0.0
2017-Jun-17 13:28N 54°59' W 001°31'0 0.0
2017-Jun-17 12:46N 54°59' W 001°31'0 0.0
2017-Jun-17 12:28N 54°59' W 001°31'0 0.0
2017-Jun-17 11:58N 54°59' W 001°31'0 0.0
2017-Jun-17 11:28N 54°59' W 001°31'0 0.0
2017-Jun-17 10:49N 54°59' W 001°31'0 0.0
2017-Jun-17 10:19N 54°59' W 001°31'0 0.0
2017-Jun-17 09:46N 54°59' W 001°31'0 0.0
2017-Jun-17 09:22N 54°59' W 001°31'0 0.0
2017-Jun-17 08:59N 54°59' W 001°31'0 0.0
2017-Jun-17 08:30N 54°59' W 001°31'0 0.0
2017-Jun-17 08:01N 54°59' W 001°31'1 1.6
2017-Jun-17 07:31N 54°59' W 001°29'3 5.5
2017-Jun-17 07:00N 55°01' W 001°25'5 9.2
2017-Jun-17 06:31N 55°01' W 001°17'510.6
2017-Jun-17 06:00N 54°60' W 001°08'30910.0
2017-Jun-15 23:08N 53°60' E 007°34'4 9.6
2017-Jun-15 22:46N 54°01' E 007°40'3 9.7
2017-Jun-15 22:27N 54°01' E 007°45'410.0
2017-Jun-15 22:00N 54°01' E 007°53'510.4
2017-Jun-15 21:30N 54°01' E 008°01'510.8
2017-Jun-15 21:00N 54°01' E 008°11'611.6
2017-Jun-15 20:30N 53°60' E 008°20'612.2
2017-Jun-15 20:00N 53°58' E 008°31'613.2
2017-Jun-15 19:30N 53°55' E 008°40'712.9
2017-Jun-15 19:00N 53°51' E 008°48'613.1
2017-Jun-15 18:30N 53°51' E 008°59'612.2
2017-Jun-15 18:00N 53°53' E 009°09'1 1.9
2017-Jun-15 17:30N 53°54' E 009°10'4 8.3
2017-Jun-15 17:00N 53°57' E 009°14'4 8.7
2017-Jun-15 16:30N 54°01' E 009°18'4 0.1
2017-Jun-14 09:02N 54°05' E 009°19'0 6.4
2017-Jun-14 08:58N 54°04' E 009°19'3 6.4
2017-Jun-14 08:30N 54°01' E 009°18'4 6.7
2017-Jun-14 07:57N 53°58' E 009°15'3 7.2
2017-Jun-14 07:31N 53°55' E 009°12'2 4.8
2017-Jun-14 07:00N 53°54' E 009°09'0 0.5
2017-Jun-14 06:30N 53°54' E 009°08'1 2.4
2017-Jun-14 06:00N 53°53' E 009°07'0 0.1
2017-Jun-14 05:30N 53°53' E 009°07'0 0.5
2017-Jun-14 05:00N 53°53' E 009°06'0 0.1
2017-Jun-14 04:31N 53°53' E 009°06'0 0.2
2017-Jun-14 04:00N 53°53' E 009°06'0 0.1
2017-Jun-14 03:31N 53°53' E 009°06'0 0.1
2017-Jun-14 03:00N 53°53' E 009°06'0 0.1
2017-Jun-14 02:30N 53°53' E 009°06'0 0.1
2017-Jun-14 02:00N 53°53' E 009°06'0 0.5
2017-Jun-14 01:31N 53°53' E 009°06'1 1.0
2017-Jun-14 00:59N 53°53' E 009°05'0 0.1
2017-Jun-14 00:31N 53°53' E 009°05'2 4.7
2017-Jun-14 00:00N 53°52' E 009°02'4 7.8
2017-Jun-13 23:31N 53°51' E 008°56'4 7.0
2017-Jun-13 23:00N 53°50' E 008°50'2 4.8
2017-Jun-13 22:30N 53°51' E 008°46'3 5.7
2017-Jun-13 22:00N 53°53' E 008°42'3 6.1
2017-Jun-13 21:29N 53°56' E 008°40'  

Dump ship's entire track history